createdAt,value
2018-05-15T00:01:42.862Z,20.19
2018-05-15T00:04:11.202Z,20.29
2018-05-15T00:06:40.289Z,20.27
2018-05-15T00:09:08.650Z,20.09
2018-05-15T00:11:37.003Z,20.08
2018-05-15T00:14:06.115Z,19.97
2018-05-15T00:16:34.451Z,19.84
2018-05-15T00:19:02.801Z,19.97
2018-05-15T00:21:31.103Z,19.92
2018-05-15T00:23:59.518Z,19.79
2018-05-15T00:26:28.630Z,19.86
2018-05-15T00:28:57.738Z,19.70
2018-05-15T00:31:26.690Z,19.67
2018-05-15T00:33:55.057Z,19.74
2018-05-15T00:36:23.376Z,19.62
2018-05-15T00:38:51.776Z,19.55
2018-05-15T00:41:20.099Z,19.60
2018-05-15T00:43:48.463Z,19.53
2018-05-15T00:46:17.031Z,19.64
2018-05-15T00:48:45.360Z,19.54
2018-05-15T00:51:14.488Z,19.61
2018-05-15T00:53:42.825Z,19.47
2018-05-15T00:56:11.931Z,19.43
2018-05-15T00:58:41.053Z,19.42
2018-05-15T01:01:09.389Z,19.32
2018-05-15T01:03:37.740Z,19.33
2018-05-15T01:06:06.059Z,19.32
2018-05-15T01:08:35.344Z,19.27
2018-05-15T01:11:03.672Z,19.06
2018-05-15T01:13:31.987Z,19.04
2018-05-15T01:16:00.368Z,19.24
2018-05-15T01:18:28.699Z,19.21
2018-05-15T01:20:57.002Z,19.20
2018-05-15T01:23:25.365Z,19.02
2018-05-15T01:25:53.687Z,19.06
2018-05-15T01:28:22.026Z,18.85
2018-05-15T01:30:50.600Z,19.00
2018-05-15T01:33:19.200Z,18.94
2018-05-15T01:35:48.297Z,18.97
2018-05-15T01:38:18.132Z,18.80
2018-05-15T01:40:46.455Z,18.70
2018-05-15T01:43:14.802Z,18.69
2018-05-15T01:45:43.163Z,18.73
2018-05-15T01:48:11.497Z,18.65
2018-05-15T01:50:39.869Z,18.62
2018-05-15T01:53:08.575Z,18.61
2018-05-15T01:55:36.898Z,18.47
2018-05-15T01:58:05.242Z,18.62
2018-05-15T02:00:33.590Z,18.57
2018-05-15T02:03:01.912Z,18.60
2018-05-15T02:05:31.022Z,18.34
2018-05-15T02:07:59.498Z,18.15
2018-05-15T02:10:27.795Z,18.15
2018-05-15T02:12:56.142Z,18.17
2018-05-15T02:15:25.731Z,18.12
2018-05-15T02:17:54.070Z,18.22
2018-05-15T02:20:22.417Z,18.16
2018-05-15T02:22:51.541Z,18.20
2018-05-15T02:25:19.897Z,18.29
2018-05-15T02:27:48.996Z,18.20
2018-05-15T02:30:18.114Z,18.24
2018-05-15T02:32:46.448Z,18.17
2018-05-15T02:35:14.774Z,18.25
2018-05-15T02:37:43.541Z,18.32
2018-05-15T02:40:11.865Z,18.21
2018-05-15T02:42:40.203Z,17.95
2018-05-15T02:45:08.530Z,18.07
2018-05-15T02:47:36.858Z,17.96
2018-05-15T02:50:05.179Z,17.86
2018-05-15T02:52:33.536Z,18.13
2018-05-15T02:55:02.662Z,18.00
2018-05-15T02:57:31.000Z,18.02
2018-05-15T02:59:59.650Z,17.88
2018-05-15T03:02:28.746Z,17.71
2018-05-15T03:04:57.164Z,17.61
2018-05-15T03:07:25.531Z,17.72
2018-05-15T03:09:53.846Z,17.81
2018-05-15T03:12:22.169Z,17.78
2018-05-15T03:14:51.290Z,17.70
2018-05-15T03:17:19.622Z,17.71
2018-05-15T03:19:47.925Z,17.74
2018-05-15T03:22:17.143Z,17.75
2018-05-15T03:24:45.460Z,17.70
2018-05-15T03:27:13.799Z,17.62
2018-05-15T03:29:42.155Z,17.48
2018-05-15T03:32:11.275Z,17.54
2018-05-15T03:34:39.585Z,17.54
2018-05-15T03:37:07.931Z,17.51
2018-05-15T03:39:36.326Z,17.53
2018-05-15T03:42:04.670Z,17.55
2018-05-15T03:44:34.368Z,17.41
2018-05-15T03:47:02.717Z,17.48
2018-05-15T03:49:31.780Z,17.60
2018-05-15T03:52:00.119Z,17.58
2018-05-15T03:54:28.464Z,17.48
2018-05-15T03:56:56.816Z,17.55
2018-05-15T03:59:25.161Z,17.56
2018-05-15T04:02:11.886Z,17.68
2018-05-15T04:04:57.934Z,17.54
2018-05-15T04:07:43.816Z,17.53
2018-05-15T04:10:12.163Z,17.64
2018-05-15T04:12:40.523Z,17.68
2018-05-15T04:15:08.859Z,17.52
2018-05-15T04:17:37.232Z,17.43
2018-05-15T04:20:05.577Z,17.54
2018-05-15T04:22:33.914Z,17.62
2018-05-15T04:25:02.531Z,17.65
2018-05-15T04:27:31.626Z,17.65
2018-05-15T04:29:59.963Z,17.67
2018-05-15T04:32:28.317Z,17.70
2018-05-15T04:34:56.732Z,17.78
2018-05-15T04:37:25.016Z,17.86
2018-05-15T04:39:53.359Z,17.90
2018-05-15T04:42:21.685Z,17.83
2018-05-15T04:44:50.036Z,18.00
2018-05-15T04:47:18.639Z,18.05
2018-05-15T04:49:46.965Z,18.11
2018-05-15T04:52:15.317Z,18.29
2018-05-15T04:54:43.665Z,18.22
2018-05-15T04:57:12.022Z,18.38
2018-05-15T04:59:40.343Z,18.56
2018-05-15T05:02:08.809Z,18.56
2018-05-15T05:04:37.146Z,18.64
2018-05-15T05:07:05.478Z,18.69
2018-05-15T05:09:34.856Z,18.82
2018-05-15T05:12:03.215Z,18.84
2018-05-15T05:14:31.545Z,18.98
2018-05-15T05:16:59.923Z,18.99
2018-05-15T05:19:29.049Z,18.66
2018-05-15T05:21:57.432Z,19.02
2018-05-15T05:24:25.796Z,19.10
2018-05-15T05:26:54.878Z,19.08
2018-05-15T05:29:23.963Z,19.19
2018-05-15T05:31:52.963Z,19.35
2018-05-15T05:34:21.382Z,19.37
2018-05-15T05:36:49.695Z,19.48
2018-05-15T05:39:18.055Z,19.62
2018-05-15T05:41:46.400Z,19.60
2018-05-15T05:44:14.726Z,19.72
2018-05-15T05:46:43.095Z,19.67
2018-05-15T05:49:11.459Z,19.72
2018-05-15T05:51:39.808Z,19.91
2018-05-15T05:54:08.413Z,19.81
2018-05-15T05:56:36.756Z,19.81
2018-05-15T05:59:05.104Z,20.04
2018-05-15T06:01:33.488Z,20.23
2018-05-15T06:04:01.817Z,20.27
2018-05-15T06:06:30.176Z,20.29
2018-05-15T06:08:59.276Z,20.28
2018-05-15T06:11:28.421Z,20.42
2018-05-15T06:13:56.776Z,20.44
2018-05-15T06:16:25.419Z,20.37
2018-05-15T06:18:53.777Z,20.35
2018-05-15T06:21:22.111Z,20.43
2018-05-15T06:23:50.462Z,20.40
2018-05-15T06:26:18.807Z,20.77
2018-05-15T06:28:48.146Z,20.67
2018-05-15T06:31:17.263Z,20.65
2018-05-15T06:33:46.364Z,20.98
2018-05-15T06:36:15.462Z,21.29
2018-05-15T06:38:44.044Z,21.58
2018-05-15T06:41:12.377Z,21.78
2018-05-15T06:43:40.689Z,21.86
2018-05-15T06:46:09.793Z,22.12
2018-05-15T06:48:38.870Z,22.17
2018-05-15T06:51:07.988Z,22.37
2018-05-15T06:53:36.361Z,22.56
2018-05-15T06:56:04.722Z,22.61
2018-05-15T06:58:33.860Z,22.95
2018-05-15T07:01:02.493Z,22.62
2018-05-15T07:03:30.878Z,23.18
2018-05-15T07:05:59.197Z,23.26
2018-05-15T07:08:27.567Z,23.22
2018-05-15T07:10:56.669Z,23.34
2018-05-15T07:13:25.028Z,23.50
2018-05-15T07:15:54.140Z,23.65
2018-05-15T07:18:22.455Z,23.98
2018-05-15T07:20:50.809Z,24.27
2018-05-15T07:23:19.583Z,24.20
2018-05-15T07:25:48.705Z,24.21
2018-05-15T07:28:17.077Z,24.42
2018-05-15T07:30:45.800Z,24.51
2018-05-15T07:33:14.135Z,24.63
2018-05-15T07:35:42.478Z,24.85
2018-05-15T07:38:11.647Z,24.77
2018-05-15T07:40:39.989Z,25.05
2018-05-15T07:43:08.359Z,25.28
2018-05-15T07:45:37.959Z,25.27
2018-05-15T07:48:07.071Z,25.41
2018-05-15T07:50:35.398Z,25.54
2018-05-15T07:53:03.781Z,25.54
2018-05-15T07:55:32.157Z,25.59
2018-05-15T07:58:01.233Z,25.95
2018-05-15T08:00:29.616Z,26.04
2018-05-15T08:02:57.925Z,26.00
2018-05-15T08:05:26.279Z,26.20
2018-05-15T08:07:54.894Z,26.56
2018-05-15T08:10:23.991Z,26.28
2018-05-15T08:12:52.338Z,26.31
2018-05-15T08:15:21.854Z,26.66
2018-05-15T08:17:50.183Z,26.89
2018-05-15T08:20:18.542Z,27.16
2018-05-15T08:22:46.907Z,27.03
2018-05-15T08:25:15.265Z,27.13
2018-05-15T08:27:43.651Z,27.23
2018-05-15T08:30:13.311Z,27.27
2018-05-15T08:32:41.635Z,27.41
2018-05-15T08:35:09.980Z,27.43
2018-05-15T08:37:38.339Z,27.79
2018-05-15T08:40:06.685Z,28.27
2018-05-15T08:42:35.025Z,28.47
2018-05-15T08:45:03.387Z,28.28
2018-05-15T08:47:31.721Z,28.44
2018-05-15T08:50:00.076Z,28.69
2018-05-15T08:52:29.008Z,28.59
2018-05-15T08:54:57.339Z,28.64
2018-05-15T08:57:25.660Z,28.49
2018-05-15T08:59:54.036Z,28.57
2018-05-15T09:02:22.373Z,28.86
2018-05-15T09:04:50.792Z,29.35
2018-05-15T09:07:19.142Z,29.68
2018-05-15T09:09:47.453Z,29.16
2018-05-15T09:12:16.550Z,29.14
2018-05-15T09:14:45.351Z,29.49
2018-05-15T09:17:13.679Z,28.67
2018-05-15T09:19:42.052Z,28.41
2018-05-15T09:22:10.440Z,28.83
2018-05-15T09:24:38.772Z,29.24
2018-05-15T09:27:07.168Z,29.12
2018-05-15T09:29:35.538Z,29.29
2018-05-15T09:32:04.632Z,29.15
2018-05-15T09:34:33.752Z,28.86
2018-05-15T09:37:02.262Z,29.18
2018-05-15T09:39:30.601Z,29.47
2018-05-15T09:41:58.903Z,29.63
2018-05-15T09:44:27.257Z,29.92
2018-05-15T09:46:55.636Z,30.04
2018-05-15T09:49:23.986Z,30.33
2018-05-15T09:51:52.332Z,30.18
2018-05-15T09:54:20.711Z,30.18
2018-05-15T09:56:49.018Z,30.14
2018-05-15T09:59:18.488Z,30.21
2018-05-15T10:01:46.826Z,30.03
2018-05-15T10:04:15.954Z,30.12
2018-05-15T10:06:44.336Z,30.46
2018-05-15T10:09:12.709Z,30.65
2018-05-15T10:11:41.096Z,30.89
2018-05-15T10:14:09.495Z,30.85
2018-05-15T10:16:37.779Z,30.99
2018-05-15T10:19:06.083Z,30.88
2018-05-15T10:21:34.639Z,30.90
2018-05-15T10:24:02.978Z,31.00
2018-05-15T10:26:31.292Z,30.78
2018-05-15T10:28:59.656Z,30.76
2018-05-15T10:31:27.976Z,30.93
2018-05-15T10:33:57.062Z,31.43
2018-05-15T10:36:25.458Z,31.85
2018-05-15T10:38:53.821Z,31.74
2018-05-15T10:41:22.177Z,31.66
2018-05-15T10:43:50.760Z,31.61
2018-05-15T10:46:19.066Z,31.49
2018-05-15T10:48:47.429Z,31.10
2018-05-15T10:51:15.792Z,31.65
2018-05-15T10:53:44.113Z,31.81
2018-05-15T10:56:13.198Z,31.91
2018-05-15T10:58:41.573Z,31.19
2018-05-15T11:01:09.958Z,31.27
2018-05-15T11:03:38.304Z,31.47
2018-05-15T11:06:06.902Z,31.46
2018-05-15T11:08:35.231Z,31.59
2018-05-15T11:11:04.360Z,32.03
2018-05-15T11:13:32.738Z,32.01
2018-05-15T11:16:01.057Z,31.59
2018-05-15T11:18:48.151Z,31.86
2018-05-15T11:21:33.915Z,31.14
2018-05-15T11:27:13.015Z,31.16
2018-05-15T11:29:42.187Z,31.48
2018-05-15T11:32:10.513Z,32.07
2018-05-15T11:34:38.834Z,32.12
2018-05-15T11:37:07.204Z,32.30
2018-05-15T11:39:35.549Z,31.83
2018-05-15T11:42:03.958Z,31.62
2018-05-15T11:44:32.602Z,30.44
2018-05-15T11:47:01.715Z,30.83
2018-05-15T11:49:30.761Z,31.64
2018-05-15T11:51:59.169Z,31.67
2018-05-15T11:54:26.758Z,31.78
2018-05-15T11:56:55.105Z,31.86
2018-05-15T11:59:23.490Z,31.49
2018-05-15T12:01:52.640Z,31.22
2018-05-15T12:04:20.948Z,30.93
2018-05-15T12:06:49.512Z,30.76
2018-05-15T12:09:17.874Z,30.94
2018-05-15T12:11:46.213Z,31.03
2018-05-15T12:14:14.573Z,31.08
2018-05-15T12:16:42.881Z,31.31
2018-05-15T12:19:11.971Z,31.45
2018-05-15T12:21:40.340Z,31.63
2018-05-15T12:24:09.486Z,31.50
2018-05-15T12:26:37.837Z,31.19
2018-05-15T12:29:07.375Z,31.44
2018-05-15T12:31:35.751Z,31.26
2018-05-15T12:34:04.110Z,31.55
2018-05-15T12:36:32.511Z,31.50
2018-05-15T12:39:00.851Z,31.86
2018-05-15T12:41:30.049Z,31.72
2018-05-15T12:43:58.475Z,31.81
2018-05-15T12:46:26.800Z,32.05
2018-05-15T12:48:55.884Z,32.12
2018-05-15T12:51:24.463Z,31.91
2018-05-15T12:53:52.835Z,31.88
2018-05-15T12:56:21.202Z,31.95
2018-05-15T12:58:49.568Z,32.13
2018-05-15T13:01:17.896Z,31.54
2018-05-15T13:03:46.232Z,31.11
2018-05-15T13:06:14.636Z,31.17
2018-05-15T13:08:42.995Z,31.24
2018-05-15T13:11:12.120Z,31.18
2018-05-15T13:13:41.676Z,31.11
2018-05-15T13:16:10.012Z,31.51
2018-05-15T13:18:38.382Z,31.58
2018-05-15T13:21:06.719Z,31.45
2018-05-15T13:23:35.019Z,31.14
2018-05-15T13:26:03.403Z,31.42
2018-05-15T13:28:32.546Z,31.71
2018-05-15T13:31:01.644Z,32.01
2018-05-15T13:33:30.747Z,32.23
2018-05-15T13:35:59.271Z,32.49
2018-05-15T13:38:27.635Z,32.48
2018-05-15T13:40:56.008Z,32.60
2018-05-15T13:43:24.373Z,32.33
2018-05-15T13:45:52.723Z,31.76
2018-05-15T13:48:21.831Z,31.94
2018-05-15T13:50:50.988Z,31.95
2018-05-15T13:53:19.340Z,31.85
2018-05-15T13:55:47.696Z,31.98
2018-05-15T13:58:16.246Z,31.95
2018-05-15T14:00:44.555Z,31.73
2018-05-15T14:03:12.905Z,31.69
2018-05-15T14:05:42.033Z,31.60
2018-05-15T14:08:10.408Z,31.35
2018-05-15T14:10:38.787Z,31.68
2018-05-15T14:13:07.913Z,31.92
2018-05-15T14:15:36.229Z,31.71
2018-05-15T14:18:04.540Z,32.04
2018-05-15T14:20:33.912Z,31.94
2018-05-15T14:23:02.248Z,31.54
2018-05-15T14:25:30.566Z,31.03
2018-05-15T14:27:58.913Z,30.93
2018-05-15T14:30:27.223Z,31.07
2018-05-15T14:32:55.562Z,30.97
2018-05-15T14:35:24.146Z,30.60
2018-05-15T14:37:52.522Z,30.52
2018-05-15T14:40:20.831Z,30.78
2018-05-15T14:43:07.051Z,30.85
2018-05-15T14:45:35.400Z,30.97
2018-05-15T14:48:03.756Z,30.81
2018-05-15T14:50:32.104Z,30.93
2018-05-15T14:53:01.208Z,30.97
2018-05-15T14:55:29.547Z,31.00
2018-05-15T14:57:57.915Z,30.61
2018-05-15T15:00:26.255Z,30.26
2018-05-15T15:02:54.571Z,30.12
2018-05-15T15:05:23.595Z,29.84
2018-05-15T15:07:51.940Z,29.58
2018-05-15T15:10:20.259Z,29.43
2018-05-15T15:12:49.423Z,29.32
2018-05-15T15:15:18.521Z,28.84
2018-05-15T15:17:46.847Z,28.88
2018-05-15T15:20:15.972Z,28.87
2018-05-15T15:22:45.094Z,28.90
2018-05-15T15:25:13.447Z,28.96
2018-05-15T15:27:41.897Z,28.88
2018-05-15T15:30:10.226Z,28.80
2018-05-15T15:32:38.576Z,28.68
2018-05-15T15:35:07.048Z,28.72
2018-05-15T15:37:35.468Z,28.70
2018-05-15T15:40:03.799Z,28.55
2018-05-15T15:42:32.249Z,28.49
2018-05-15T15:45:01.266Z,28.46
2018-05-15T15:47:30.328Z,28.26
2018-05-15T15:49:59.083Z,28.30
2018-05-15T15:52:27.438Z,28.09
2018-05-15T15:54:55.778Z,27.68
2018-05-15T15:57:24.155Z,27.63
2018-05-15T15:59:53.282Z,27.53
2018-05-15T16:02:22.518Z,27.51
2018-05-15T16:04:50.889Z,27.36
2018-05-15T16:07:19.274Z,27.14
2018-05-15T16:09:47.730Z,26.60
2018-05-15T16:12:16.246Z,26.38
2018-05-15T16:14:44.599Z,26.52
2018-05-15T16:17:12.961Z,26.52
2018-05-15T16:19:41.312Z,26.16
2018-05-15T16:22:10.443Z,26.22
2018-05-15T16:24:39.544Z,25.90
2018-05-15T16:27:07.951Z,25.76
2018-05-15T16:29:36.280Z,25.86
2018-05-15T16:32:05.419Z,25.88
2018-05-15T16:34:33.997Z,25.76
2018-05-15T16:37:02.364Z,25.94
2018-05-15T16:39:32.195Z,25.77
2018-05-15T16:42:00.519Z,25.68
2018-05-15T16:44:29.653Z,25.53
2018-05-15T16:46:58.766Z,25.54
2018-05-15T16:49:27.126Z,25.66
2018-05-15T16:51:56.213Z,25.58
2018-05-15T16:54:24.567Z,25.50
2018-05-15T16:56:53.082Z,25.64
2018-05-15T16:59:22.176Z,25.40
2018-05-15T17:01:51.289Z,25.29
2018-05-15T17:04:19.637Z,25.18
2018-05-15T17:06:48.755Z,25.12
2018-05-15T17:09:17.080Z,25.35
2018-05-15T17:11:45.445Z,25.07
2018-05-15T17:14:13.800Z,24.93
2018-05-15T17:16:42.145Z,25.12
2018-05-15T17:19:10.764Z,25.12
2018-05-15T17:21:39.107Z,24.91
2018-05-15T17:24:07.512Z,25.15
2018-05-15T17:26:35.834Z,25.11
2018-05-15T17:29:04.191Z,25.09
2018-05-15T17:31:33.311Z,25.04
2018-05-15T17:34:01.714Z,24.82
2018-05-15T17:36:30.145Z,24.95
2018-05-15T17:38:58.496Z,25.01
2018-05-15T17:41:27.696Z,25.00
2018-05-15T17:43:56.801Z,25.06
2018-05-15T17:46:25.227Z,24.72
2018-05-15T17:48:54.305Z,24.60
2018-05-15T17:51:22.682Z,24.64
2018-05-15T17:53:51.131Z,24.84
2018-05-15T17:56:19.490Z,24.77
2018-05-15T17:58:47.870Z,24.60
2018-05-15T18:01:16.185Z,24.64
2018-05-15T18:03:44.870Z,24.61
2018-05-15T18:06:13.269Z,24.67
2018-05-15T18:08:41.606Z,24.59
2018-05-15T18:11:09.964Z,24.41
2018-05-15T18:13:38.268Z,24.51
2018-05-15T18:16:07.339Z,24.54
2018-05-15T18:18:36.553Z,24.48
2018-05-15T18:21:04.965Z,24.39
2018-05-15T18:23:33.268Z,24.28
2018-05-15T18:26:02.048Z,24.45
2018-05-15T18:28:30.385Z,24.57
2018-05-15T18:30:59.511Z,24.56
2018-05-15T18:33:27.856Z,24.51
2018-05-15T18:35:56.261Z,24.36
2018-05-15T18:38:24.591Z,24.21
2018-05-15T18:40:52.969Z,24.21
2018-05-15T18:43:21.327Z,24.06
2018-05-15T18:45:49.704Z,24.08
2018-05-15T18:48:18.197Z,24.14
2018-05-15T18:50:46.538Z,24.01
2018-05-15T18:53:14.884Z,24.07
2018-05-15T18:55:43.279Z,24.05
2018-05-15T18:58:12.392Z,23.97
2018-05-15T19:00:41.540Z,24.03
2018-05-15T19:03:09.936Z,24.03
2018-05-15T19:05:38.296Z,23.88
2018-05-15T19:08:06.654Z,24.02
2018-05-15T19:10:35.076Z,23.79
2018-05-15T19:13:03.406Z,23.57
2018-05-15T19:15:31.790Z,23.61
2018-05-15T19:18:00.176Z,23.62
2018-05-15T19:20:28.563Z,23.73
2018-05-15T19:22:56.900Z,23.71
2018-05-15T19:25:25.280Z,23.63
2018-05-15T19:27:54.470Z,23.50
2018-05-15T19:30:22.935Z,23.52
2018-05-15T19:32:56.814Z,23.70
2018-05-15T19:35:29.937Z,23.56
2018-05-15T19:37:58.317Z,23.65
2018-05-15T19:40:30.704Z,23.49
2018-05-15T19:42:59.852Z,23.42
2018-05-15T19:45:28.175Z,23.36
2018-05-15T19:47:56.499Z,23.26
2018-05-15T19:50:24.969Z,23.42
2018-05-15T19:52:53.323Z,23.51
2018-05-15T19:55:22.560Z,23.39
2018-05-15T19:57:50.981Z,23.16
2018-05-15T20:00:20.175Z,22.68
2018-05-15T20:02:48.568Z,22.32
2018-05-15T20:05:16.958Z,21.91
2018-05-15T20:07:46.107Z,21.67
2018-05-15T20:10:14.516Z,21.86
2018-05-15T20:12:43.606Z,22.05
2018-05-15T20:15:11.945Z,21.84
2018-05-15T20:17:40.294Z,21.64
2018-05-15T20:20:09.479Z,21.52
2018-05-15T20:22:38.605Z,21.32
2018-05-15T20:25:06.936Z,21.51
2018-05-15T20:27:35.649Z,21.54
2018-05-15T20:30:04.053Z,21.59
2018-05-15T20:32:32.437Z,21.37
2018-05-15T20:35:01.047Z,20.40
2018-05-15T20:37:30.098Z,20.41
2018-05-15T20:39:58.432Z,20.24
2018-05-15T20:42:26.944Z,20.45
2018-05-15T20:44:55.396Z,20.50
2018-05-15T20:47:23.745Z,20.31
2018-05-15T20:49:52.217Z,20.32
2018-05-15T20:52:20.575Z,20.16
2018-05-15T20:54:49.655Z,20.19
2018-05-15T20:57:18.182Z,20.17
2018-05-15T20:59:46.519Z,20.06
2018-05-15T21:02:16.363Z,20.09
2018-05-15T21:04:44.853Z,20.13
2018-05-15T21:07:13.222Z,20.24
2018-05-15T21:09:41.580Z,20.18
2018-05-15T21:12:10.715Z,20.10
2018-05-15T21:14:39.130Z,19.91
2018-05-15T21:17:07.477Z,19.91
2018-05-15T21:19:36.238Z,19.92
2018-05-15T21:22:04.608Z,19.84
2018-05-15T21:24:33.706Z,19.90
2018-05-15T21:27:02.822Z,19.82
2018-05-15T21:29:31.165Z,20.08
2018-05-15T21:31:59.513Z,20.14
2018-05-15T21:34:28.665Z,20.00
2018-05-15T21:36:57.049Z,19.99
2018-05-15T21:39:25.437Z,19.91
2018-05-15T21:41:54.247Z,19.67
2018-05-15T21:44:22.573Z,19.68
2018-05-15T21:46:51.667Z,20.01
2018-05-15T21:49:20.039Z,19.91
2018-05-15T21:51:48.418Z,19.94
2018-05-15T21:54:16.894Z,19.87
2018-05-15T21:56:45.350Z,19.97
2018-05-15T21:59:13.672Z,20.02
2018-05-15T22:01:42.009Z,19.91
2018-05-15T22:04:10.474Z,20.08
2018-05-15T22:06:38.837Z,19.90
2018-05-15T22:09:07.182Z,19.86
2018-05-15T22:11:53.061Z,19.93
2018-05-15T22:14:39.188Z,19.88
2018-05-15T22:17:26.047Z,19.75
2018-05-15T22:20:11.955Z,19.70
2018-05-15T22:22:39.581Z,19.63
2018-05-15T22:25:08.011Z,19.72
2018-05-15T22:27:36.381Z,19.67
2018-05-15T22:30:04.750Z,19.74
2018-05-15T22:32:33.278Z,19.74
2018-05-15T22:35:01.601Z,19.77
2018-05-15T22:37:30.054Z,19.75
2018-05-15T22:39:58.622Z,19.83
2018-05-15T22:42:27.149Z,19.61
2018-05-15T22:44:55.919Z,19.70
2018-05-15T22:47:24.253Z,19.66
2018-05-15T22:49:52.617Z,19.60
2018-05-15T22:52:20.972Z,19.41
2018-05-15T22:54:49.354Z,19.57
2018-05-15T22:57:17.664Z,19.54
2018-05-15T22:59:46.079Z,19.62
2018-05-15T23:02:15.208Z,19.58
2018-05-15T23:04:43.554Z,19.66
2018-05-15T23:07:12.766Z,19.54
2018-05-15T23:09:41.202Z,19.60
2018-05-15T23:12:09.550Z,19.65
2018-05-15T23:14:37.892Z,19.67
2018-05-15T23:17:06.985Z,19.61
2018-05-15T23:19:36.085Z,19.46
2018-05-15T23:22:04.437Z,19.53
2018-05-15T23:24:32.808Z,19.57
2018-05-15T23:27:01.123Z,19.40
2018-05-15T23:29:29.821Z,19.48
2018-05-15T23:31:58.099Z,19.34
2018-05-15T23:34:26.417Z,19.35
2018-05-15T23:36:54.762Z,19.42
2018-05-15T23:39:23.840Z,19.32
2018-05-15T23:41:52.945Z,19.35
2018-05-15T23:44:21.277Z,19.35
2018-05-15T23:46:49.590Z,19.18
2018-05-15T23:49:18.696Z,19.11
2018-05-15T23:51:48.164Z,19.16
2018-05-15T23:54:16.471Z,19.14
2018-05-15T23:56:45.571Z,19.10
2018-05-15T23:59:13.946Z,19.07
